createdAt,value
2023-10-20T00:00:15.803Z,18.30
2023-10-20T00:02:44.171Z,18.67
2023-10-20T00:05:15.217Z,18.53
2023-10-20T00:07:43.354Z,19.00
2023-10-20T00:10:12.820Z,19.47
2023-10-20T00:12:41.378Z,17.93
2023-10-20T00:15:11.056Z,17.03
2023-10-20T00:17:39.035Z,17.87
2023-10-20T00:20:07.532Z,18.67
2023-10-20T00:22:36.926Z,17.50
2023-10-20T00:25:05.059Z,17.50
2023-10-20T00:27:33.057Z,16.70
2023-10-20T00:30:00.890Z,16.47
2023-10-20T00:32:28.838Z,17.20
2023-10-20T00:34:56.966Z,16.63
2023-10-20T00:37:25.228Z,16.73
2023-10-20T00:39:54.841Z,16.00
2023-10-20T00:42:22.755Z,16.90
2023-10-20T00:44:50.661Z,15.97
2023-10-20T00:47:19.463Z,15.40
2023-10-20T00:49:48.165Z,17.67
2023-10-20T00:52:16.419Z,16.10
2023-10-20T00:54:47.570Z,17.03
2023-10-20T00:57:17.524Z,15.90
2023-10-20T00:59:45.830Z,16.17
2023-10-20T01:02:14.461Z,16.83
2023-10-20T01:04:42.611Z,16.57
2023-10-20T01:07:10.492Z,16.50
2023-10-20T01:09:38.478Z,17.10
2023-10-20T01:12:06.840Z,16.97
2023-10-20T01:14:36.870Z,16.83
2023-10-20T01:17:04.870Z,17.53
2023-10-20T01:19:34.697Z,16.90
2023-10-20T01:22:02.679Z,16.97
2023-10-20T01:24:32.867Z,17.27
2023-10-20T01:27:00.910Z,17.30
2023-10-20T01:29:28.912Z,17.40
2023-10-20T01:31:56.748Z,17.90
2023-10-20T01:34:24.667Z,17.17
2023-10-20T01:36:52.549Z,18.20
2023-10-20T01:39:20.457Z,17.30
2023-10-20T01:41:49.716Z,17.20
2023-10-20T01:44:17.633Z,18.27
2023-10-20T01:46:50.698Z,16.87
2023-10-20T01:49:19.553Z,17.53
2023-10-20T01:51:47.557Z,16.23
2023-10-20T01:54:15.595Z,16.97
2023-10-20T01:56:45.123Z,17.40
2023-10-20T01:59:14.438Z,16.93
2023-10-20T02:01:42.402Z,16.53
2023-10-20T02:04:10.335Z,16.33
2023-10-20T02:06:38.292Z,15.93
2023-10-20T02:09:07.324Z,17.33
2023-10-20T02:11:35.270Z,18.43
2023-10-20T02:14:04.475Z,19.67
2023-10-20T02:16:33.983Z,17.70
2023-10-20T02:19:01.985Z,19.03
2023-10-20T02:21:30.339Z,17.83
2023-10-20T02:23:58.557Z,18.27
2023-10-20T02:26:26.455Z,18.37
2023-10-20T02:28:54.433Z,18.60
2023-10-20T02:31:22.505Z,19.67
2023-10-20T02:33:51.853Z,18.10
2023-10-20T02:36:20.114Z,20.23
2023-10-20T02:38:48.646Z,20.27
2023-10-20T02:41:17.267Z,19.77
2023-10-20T02:43:45.150Z,19.20
2023-10-20T02:46:13.811Z,18.97
2023-10-20T02:48:42.001Z,17.80
2023-10-20T02:51:11.753Z,18.20
2023-10-20T02:53:40.832Z,16.67
2023-10-20T02:56:13.667Z,16.83
2023-10-20T02:58:41.685Z,17.70
2023-10-20T03:01:10.750Z,17.67
2023-10-20T03:03:39.387Z,17.60
2023-10-20T03:06:08.188Z,18.53
2023-10-20T03:08:38.873Z,17.70
2023-10-20T03:11:07.440Z,17.33
2023-10-20T03:13:35.662Z,17.47
2023-10-20T03:16:03.642Z,17.73
2023-10-20T03:18:31.696Z,17.07
2023-10-20T03:21:02.044Z,16.63
2023-10-20T03:23:30.225Z,18.57
2023-10-20T03:25:59.678Z,17.00
2023-10-20T03:28:28.165Z,16.83
2023-10-20T03:30:56.251Z,16.63
2023-10-20T03:33:24.358Z,15.73
2023-10-20T03:36:01.196Z,16.90
2023-10-20T03:38:29.876Z,17.70
2023-10-20T03:41:07.867Z,16.23
2023-10-20T03:43:36.716Z,14.50
2023-10-20T03:46:05.956Z,15.93
2023-10-20T03:48:36.008Z,14.77
2023-10-20T03:51:06.585Z,15.10
2023-10-20T03:53:42.653Z,15.77
2023-10-20T03:56:12.157Z,14.93
2023-10-20T03:58:43.510Z,15.03
2023-10-20T04:01:12.420Z,16.50
2023-10-20T04:03:41.628Z,15.77
2023-10-20T04:06:10.336Z,16.10
2023-10-20T04:08:38.293Z,15.30
2023-10-20T04:11:06.200Z,14.40
2023-10-20T04:13:36.608Z,15.80
2023-10-20T04:16:13.684Z,15.97
2023-10-20T04:18:42.517Z,15.70
2023-10-20T04:21:12.589Z,15.90
2023-10-20T04:23:40.704Z,15.23
2023-10-20T04:26:17.802Z,15.90
2023-10-20T04:28:49.139Z,16.27
2023-10-20T04:31:38.121Z,15.83
2023-10-20T04:34:24.137Z,15.13
2023-10-20T04:37:09.571Z,15.63
2023-10-20T04:40:06.542Z,15.47
2023-10-20T04:42:56.115Z,15.27
2023-10-20T04:46:04.016Z,15.27
2023-10-20T04:48:48.816Z,15.83
2023-10-20T04:51:25.628Z,15.67
2023-10-20T04:53:55.901Z,15.93
2023-10-20T04:56:34.258Z,15.67
2023-10-20T04:59:06.562Z,15.23
2023-10-20T05:01:44.448Z,15.53
2023-10-20T05:04:17.329Z,15.70
2023-10-20T05:06:46.103Z,16.30
2023-10-20T05:09:17.658Z,16.97
2023-10-20T05:11:47.868Z,16.60
2023-10-20T05:14:15.720Z,17.23
2023-10-20T05:16:45.015Z,16.57
2023-10-20T05:19:13.370Z,15.83
2023-10-20T05:21:41.369Z,17.73
2023-10-20T05:24:09.853Z,16.93
2023-10-20T05:26:37.753Z,16.00
2023-10-20T05:29:05.682Z,16.23
2023-10-20T05:31:33.636Z,16.40
2023-10-20T05:34:03.447Z,17.17
2023-10-20T05:36:31.367Z,16.00
2023-10-20T05:38:59.302Z,16.87
2023-10-20T05:41:27.534Z,16.87
2023-10-20T05:43:56.050Z,16.93
2023-10-20T05:46:24.041Z,16.60
2023-10-20T05:48:52.589Z,17.17
2023-10-20T05:51:22.835Z,15.53
2023-10-20T05:53:50.855Z,17.37
2023-10-20T05:56:18.824Z,16.20
2023-10-20T05:58:46.757Z,16.07
2023-10-20T06:01:14.776Z,16.80
2023-10-20T06:03:42.880Z,16.27
2023-10-20T06:06:11.485Z,17.23
2023-10-20T06:08:41.082Z,16.30
2023-10-20T06:11:09.041Z,17.83
2023-10-20T06:13:37.804Z,18.87
2023-10-20T06:16:09.767Z,18.07
2023-10-20T06:18:38.322Z,17.90
2023-10-20T06:21:06.609Z,16.07
2023-10-20T06:23:34.608Z,17.80
2023-10-20T06:26:03.955Z,18.63
2023-10-20T06:28:32.298Z,17.53
2023-10-20T06:31:02.318Z,17.70
2023-10-20T06:33:34.357Z,18.13
2023-10-20T06:36:11.612Z,17.93
2023-10-20T06:38:46.456Z,17.63
2023-10-20T06:41:16.167Z,18.53
2023-10-20T06:43:44.113Z,17.83
2023-10-20T06:46:12.106Z,17.77
2023-10-20T06:48:40.028Z,18.10
2023-10-20T06:51:08.013Z,17.63
2023-10-20T06:53:36.617Z,17.50
2023-10-20T06:56:15.128Z,17.70
2023-10-20T06:58:46.048Z,18.03
2023-10-20T07:01:14.282Z,18.27
2023-10-20T07:03:42.941Z,16.93
2023-10-20T07:06:12.551Z,17.43
2023-10-20T07:08:41.076Z,17.37
2023-10-20T07:11:09.238Z,17.67
2023-10-20T07:13:37.115Z,19.43
2023-10-20T07:16:06.967Z,17.80
2023-10-20T07:18:35.043Z,19.10
2023-10-20T07:21:04.419Z,19.97
2023-10-20T07:23:33.426Z,18.97
2023-10-20T07:26:01.381Z,18.40
2023-10-20T07:28:29.285Z,18.40
2023-10-20T07:30:57.534Z,18.13
2023-10-20T07:33:27.054Z,17.73
2023-10-20T07:35:54.955Z,17.23
2023-10-20T07:38:22.919Z,17.80
2023-10-20T07:40:50.838Z,18.97
2023-10-20T07:43:18.732Z,18.27
2023-10-20T07:45:46.625Z,18.20
2023-10-20T07:48:15.416Z,17.07
2023-10-20T07:50:46.227Z,18.77
2023-10-20T07:53:15.290Z,17.03
2023-10-20T07:55:43.402Z,17.90
2023-10-20T07:58:11.326Z,16.93
2023-10-20T08:00:39.196Z,17.83
2023-10-20T08:03:07.697Z,17.80
2023-10-20T08:05:37.320Z,18.03
2023-10-20T08:08:07.794Z,18.23
2023-10-20T08:10:35.898Z,16.47
2023-10-20T08:13:04.140Z,17.03
2023-10-20T08:15:32.079Z,16.03
2023-10-20T08:18:00.113Z,16.17
2023-10-20T08:20:28.047Z,16.00
2023-10-20T08:22:55.925Z,16.70
2023-10-20T08:25:25.171Z,16.40
2023-10-20T08:27:53.001Z,16.30
2023-10-20T08:30:21.984Z,16.13
2023-10-20T08:32:50.205Z,16.07
2023-10-20T08:35:18.345Z,15.20
2023-10-20T08:37:46.291Z,16.13
2023-10-20T08:40:14.663Z,15.67
2023-10-20T08:42:44.929Z,16.07
2023-10-20T08:45:15.965Z,15.53
2023-10-20T08:47:44.280Z,15.13
2023-10-20T08:50:17.554Z,16.27
2023-10-20T08:52:46.443Z,14.60
2023-10-20T08:55:14.750Z,14.53
2023-10-20T08:57:44.299Z,15.90
2023-10-20T09:00:21.563Z,15.03
2023-10-20T09:02:51.557Z,15.17
2023-10-20T09:05:23.726Z,14.93
2023-10-20T09:07:55.965Z,14.60
2023-10-20T09:10:23.978Z,15.40
2023-10-20T09:12:53.262Z,14.73
2023-10-20T09:15:22.384Z,14.80
2023-10-20T09:17:55.482Z,15.73
2023-10-20T09:20:24.899Z,14.87
2023-10-20T09:22:53.380Z,14.27
2023-10-20T09:25:21.310Z,14.33
2023-10-20T09:27:49.378Z,13.90
2023-10-20T09:30:19.513Z,13.43
2023-10-20T09:32:48.944Z,13.83
2023-10-20T09:35:16.928Z,13.27
2023-10-20T09:37:45.254Z,13.70
2023-10-20T09:40:13.627Z,14.10
2023-10-20T09:42:48.036Z,13.10
2023-10-20T09:45:18.480Z,13.10
2023-10-20T09:47:48.256Z,12.87
2023-10-20T09:50:19.543Z,12.73
2023-10-20T09:52:48.124Z,13.50
2023-10-20T09:55:16.303Z,13.13
2023-10-20T09:57:44.288Z,13.90
2023-10-20T10:00:13.994Z,14.53
2023-10-20T10:02:43.360Z,14.70
2023-10-20T10:05:11.791Z,14.03
2023-10-20T10:07:39.903Z,13.60
2023-10-20T10:10:09.249Z,13.37
2023-10-20T10:12:38.435Z,12.07
2023-10-20T10:15:09.245Z,12.80
2023-10-20T10:17:46.750Z,13.17
2023-10-20T10:20:21.707Z,11.97
2023-10-20T10:22:49.616Z,12.97
2023-10-20T10:25:18.283Z,12.77
2023-10-20T10:27:46.210Z,12.30
2023-10-20T10:30:17.065Z,12.90
2023-10-20T10:32:48.946Z,13.40
2023-10-20T10:35:18.502Z,12.73
2023-10-20T10:37:46.470Z,12.07
2023-10-20T10:40:19.673Z,11.70
2023-10-20T10:42:49.669Z,11.83
2023-10-20T10:45:23.063Z,11.93
2023-10-20T10:47:54.494Z,11.27
2023-10-20T10:50:23.289Z,11.47
2023-10-20T10:52:53.007Z,11.23
2023-10-20T10:55:21.767Z,10.93
2023-10-20T10:57:49.923Z,11.70
2023-10-20T11:00:18.185Z,11.37
2023-10-20T11:02:46.710Z,11.63
2023-10-20T11:05:19.072Z,12.60
2023-10-20T11:08:05.057Z,11.20
2023-10-20T11:10:35.996Z,11.37
2023-10-20T11:13:07.808Z,12.07
2023-10-20T11:15:36.390Z,12.43
2023-10-20T11:18:05.845Z,11.97
2023-10-20T11:20:37.668Z,11.97
2023-10-20T11:23:08.473Z,12.93
2023-10-20T11:25:37.648Z,12.53
2023-10-20T11:28:07.193Z,13.03
2023-10-20T11:30:38.757Z,12.63
2023-10-20T11:33:07.248Z,12.70
2023-10-20T11:35:36.773Z,13.50
2023-10-20T11:38:06.755Z,13.27
2023-10-20T11:40:34.856Z,13.80
2023-10-20T11:43:02.780Z,13.43
2023-10-20T11:45:31.034Z,13.40
2023-10-20T11:47:59.625Z,13.40
2023-10-20T11:50:27.698Z,13.37
2023-10-20T11:52:57.020Z,14.00
2023-10-20T11:55:25.406Z,14.50
2023-10-20T11:57:53.600Z,14.30
2023-10-20T12:00:25.434Z,14.87
2023-10-20T12:02:53.336Z,14.40
2023-10-20T12:05:22.670Z,14.50
2023-10-20T12:07:50.724Z,13.90
2023-10-20T12:10:20.047Z,13.83
2023-10-20T12:12:47.920Z,15.13
2023-10-20T12:15:15.954Z,15.00
2023-10-20T12:17:43.818Z,15.60
2023-10-20T12:20:14.939Z,15.20
2023-10-20T12:22:43.076Z,14.23
2023-10-20T12:25:11.199Z,15.00
2023-10-20T12:27:40.801Z,13.63
2023-10-20T12:30:12.118Z,14.67
2023-10-20T12:32:40.172Z,14.43
2023-10-20T12:35:08.670Z,15.03
2023-10-20T12:37:36.831Z,15.20
2023-10-20T12:40:05.164Z,14.97
2023-10-20T12:42:37.272Z,15.70
2023-10-20T12:45:10.158Z,16.03
2023-10-20T12:47:38.200Z,16.53
2023-10-20T12:50:07.687Z,15.90
2023-10-20T12:52:35.823Z,14.93
2023-10-20T12:55:06.897Z,15.17
2023-10-20T12:57:35.072Z,15.63
2023-10-20T13:00:02.994Z,15.13
2023-10-20T13:02:32.459Z,15.70
2023-10-20T13:05:04.786Z,16.47
2023-10-20T13:07:32.651Z,15.53
2023-10-20T13:10:04.851Z,14.70
2023-10-20T13:12:33.045Z,15.43
2023-10-20T13:15:02.777Z,16.63
2023-10-20T13:17:34.590Z,16.30
2023-10-20T13:20:03.134Z,16.03
2023-10-20T13:22:31.636Z,15.43
2023-10-20T13:24:59.522Z,15.40
2023-10-20T13:27:27.425Z,15.43
2023-10-20T13:29:55.382Z,14.40
2023-10-20T13:32:24.683Z,15.77
2023-10-20T13:34:59.570Z,14.47
2023-10-20T13:37:29.178Z,14.27
2023-10-20T13:39:58.896Z,13.50
2023-10-20T13:42:28.271Z,13.87
2023-10-20T13:44:56.493Z,13.90
2023-10-20T13:47:25.466Z,13.47
2023-10-20T13:49:58.008Z,12.70
2023-10-20T13:52:26.092Z,13.87
2023-10-20T13:54:54.301Z,13.27
2023-10-20T13:57:22.362Z,14.40
2023-10-20T13:59:50.407Z,13.23
2023-10-20T14:02:19.241Z,12.53
2023-10-20T14:04:48.579Z,12.97
2023-10-20T14:07:18.013Z,12.47
2023-10-20T14:09:46.369Z,12.70
2023-10-20T14:12:14.359Z,13.53
2023-10-20T14:14:44.027Z,13.60
2023-10-20T14:17:11.952Z,13.23
2023-10-20T14:19:40.134Z,13.27
2023-10-20T14:22:08.223Z,12.60
2023-10-20T14:24:37.755Z,13.40
2023-10-20T14:27:05.903Z,12.23
2023-10-20T14:29:34.149Z,13.47
2023-10-20T14:32:03.276Z,12.30
2023-10-20T14:34:31.515Z,12.30
2023-10-20T14:36:59.651Z,11.00
2023-10-20T14:39:27.787Z,11.93
2023-10-20T14:41:57.150Z,11.93
2023-10-20T14:44:25.177Z,10.67
2023-10-20T14:46:53.151Z,11.60
2023-10-20T14:49:21.179Z,11.13
2023-10-20T14:51:49.175Z,10.73
2023-10-20T14:54:17.233Z,12.30
2023-10-20T14:56:45.343Z,11.13
2023-10-20T14:59:14.798Z,11.73
2023-10-20T15:01:42.719Z,10.90
2023-10-20T15:04:26.571Z,11.27
2023-10-20T15:06:57.942Z,11.70
2023-10-20T15:09:25.887Z,11.23
2023-10-20T15:11:54.019Z,11.80
2023-10-20T15:14:23.583Z,11.33
2023-10-20T15:16:51.789Z,11.27
2023-10-20T15:19:19.675Z,11.20
2023-10-20T15:21:48.425Z,10.77
2023-10-20T15:24:16.473Z,11.40
2023-10-20T15:26:46.596Z,11.07
2023-10-20T15:29:15.203Z,10.93
2023-10-20T15:31:44.718Z,11.63
2023-10-20T15:34:12.824Z,11.40
2023-10-20T15:36:47.595Z,11.60
2023-10-20T15:39:15.915Z,11.97
2023-10-20T15:41:43.948Z,11.97
2023-10-20T15:44:11.977Z,11.20
2023-10-20T15:46:40.616Z,12.43
2023-10-20T15:49:10.119Z,11.80
2023-10-20T15:51:38.034Z,12.27
2023-10-20T15:54:06.052Z,12.00
2023-10-20T15:56:34.081Z,12.20
2023-10-20T15:59:01.914Z,12.50
2023-10-20T16:01:29.752Z,11.00
2023-10-20T16:03:57.801Z,9.97
2023-10-20T16:06:27.211Z,11.63
2023-10-20T16:08:55.342Z,12.07
2023-10-20T16:11:23.182Z,12.93
2023-10-20T16:13:51.073Z,14.43
2023-10-20T16:16:24.695Z,15.47
2023-10-20T16:18:52.761Z,13.13
2023-10-20T16:21:20.823Z,12.87
2023-10-20T16:23:50.166Z,18.73
2023-10-20T16:26:18.081Z,25.47
2023-10-20T16:28:45.959Z,26.27
2023-10-20T16:31:13.841Z,24.93
2023-10-20T16:33:41.891Z,22.17
2023-10-20T16:36:10.014Z,25.50
2023-10-20T16:38:37.934Z,24.07
2023-10-20T16:41:07.309Z,21.67
2023-10-20T16:43:35.146Z,19.10
2023-10-20T16:46:05.689Z,21.43
2023-10-20T16:48:34.779Z,20.87
2023-10-20T16:51:03.242Z,19.10
2023-10-20T16:53:31.328Z,16.57
2023-10-20T16:55:59.794Z,16.60
2023-10-20T16:58:29.648Z,21.33
2023-10-20T17:01:02.536Z,19.07
2023-10-20T17:03:30.599Z,17.23
2023-10-20T17:05:58.912Z,17.70
2023-10-20T17:08:28.503Z,18.87
2023-10-20T17:10:56.505Z,17.40
2023-10-20T17:13:25.632Z,15.43
2023-10-20T17:15:54.881Z,12.23
2023-10-20T17:18:23.041Z,10.90
2023-10-20T17:20:52.826Z,9.80
2023-10-20T17:23:20.773Z,9.73
2023-10-20T17:25:49.120Z,12.00
2023-10-20T17:28:16.997Z,15.60
2023-10-20T17:30:44.932Z,14.37
2023-10-20T17:33:14.286Z,12.83
2023-10-20T17:35:42.172Z,17.33
2023-10-20T17:38:10.563Z,15.97
2023-10-20T17:40:38.413Z,13.47
2023-10-20T17:43:06.292Z,12.20
2023-10-20T17:45:34.234Z,10.90
2023-10-20T17:48:02.896Z,10.27
2023-10-20T17:53:17.720Z,6.97
2023-10-20T17:55:46.102Z,5.50
2023-10-20T17:58:13.969Z,4.10
2023-10-20T18:00:42.245Z,3.57
2023-10-20T18:03:12.059Z,2.87
2023-10-20T18:05:40.252Z,3.13
2023-10-20T18:08:08.640Z,2.80
2023-10-20T18:10:38.184Z,2.70
2023-10-20T18:13:06.289Z,3.10
2023-10-20T18:15:36.634Z,2.90
2023-10-20T18:18:05.022Z,3.03
2023-10-20T18:20:33.001Z,4.10
2023-10-20T18:23:01.098Z,3.50
2023-10-20T18:25:30.061Z,3.60
2023-10-20T18:27:59.301Z,3.10
2023-10-20T18:30:28.029Z,3.53
2023-10-20T18:32:55.974Z,3.93
2023-10-20T18:35:23.822Z,3.40
2023-10-20T18:37:51.705Z,3.43
2023-10-20T18:40:19.954Z,3.93
2023-10-20T18:42:48.935Z,4.07
2023-10-20T18:45:18.564Z,4.07
2023-10-20T18:47:46.507Z,4.87
2023-10-20T18:50:14.431Z,5.13
2023-10-20T18:52:42.296Z,5.80
2023-10-20T18:55:11.092Z,6.43
2023-10-20T18:57:38.946Z,6.20
2023-10-20T19:00:08.498Z,6.30
2023-10-20T19:02:37.818Z,6.23
2023-10-20T19:05:07.372Z,6.40
2023-10-20T19:07:35.234Z,5.97
2023-10-20T19:10:04.158Z,5.13
2023-10-20T19:12:31.981Z,5.33
2023-10-20T19:15:00.074Z,5.93
2023-10-20T19:17:28.069Z,5.73
2023-10-20T19:19:57.770Z,5.90
2023-10-20T19:22:25.634Z,6.17
2023-10-20T19:24:53.474Z,6.33
2023-10-20T19:27:21.292Z,6.67
2023-10-20T19:29:49.102Z,6.97
2023-10-20T19:32:16.914Z,7.07
2023-10-20T19:34:44.792Z,6.43
2023-10-20T19:37:14.037Z,7.10
2023-10-20T19:39:41.863Z,6.20
2023-10-20T19:42:10.524Z,6.10
2023-10-20T19:44:38.494Z,6.57
2023-10-20T19:47:07.027Z,6.80
2023-10-20T19:49:35.086Z,6.50
2023-10-20T19:52:03.087Z,6.77
2023-10-20T19:54:32.354Z,5.90
2023-10-20T19:57:00.246Z,6.03
2023-10-20T19:59:28.074Z,6.03
2023-10-20T20:01:56.225Z,5.63
2023-10-20T20:04:25.750Z,5.57
2023-10-20T20:06:53.857Z,6.03
2023-10-20T20:09:21.683Z,5.90
2023-10-20T20:11:50.975Z,5.90
2023-10-20T20:14:18.815Z,6.07
2023-10-20T20:16:49.927Z,5.70
2023-10-20T20:19:17.834Z,5.30
2023-10-20T20:21:46.045Z,5.10
2023-10-20T20:24:13.954Z,5.97
2023-10-20T20:26:41.844Z,5.40
2023-10-20T20:29:11.044Z,5.33
2023-10-20T20:31:38.904Z,5.97
2023-10-20T20:34:06.773Z,5.80
2023-10-20T20:36:34.674Z,6.20
2023-10-20T20:39:02.764Z,5.60
2023-10-20T20:41:30.665Z,5.50
2023-10-20T20:43:59.075Z,5.67
2023-10-20T20:46:28.558Z,4.97
2023-10-20T20:48:56.622Z,5.23
2023-10-20T20:51:24.512Z,4.90
2023-10-20T20:53:53.431Z,5.37
2023-10-20T20:56:21.410Z,4.63
2023-10-20T20:58:49.248Z,4.47
2023-10-20T21:01:17.227Z,4.20
2023-10-20T21:03:46.509Z,3.67
2023-10-20T21:06:14.516Z,3.30
2023-10-20T21:08:42.469Z,3.70
2023-10-20T21:11:11.247Z,3.57
2023-10-20T21:13:40.159Z,3.83
2023-10-20T21:16:10.246Z,3.67
2023-10-20T21:18:38.586Z,3.07
2023-10-20T21:21:14.069Z,3.60
2023-10-20T21:23:42.155Z,3.50
2023-10-20T21:26:10.228Z,3.43
2023-10-20T21:28:39.520Z,3.17
2023-10-20T21:31:07.940Z,4.10
2023-10-20T21:33:36.090Z,3.80
2023-10-20T21:36:04.300Z,3.93
2023-10-20T21:38:33.647Z,4.37
2023-10-20T21:41:01.566Z,4.00
2023-10-20T21:43:29.841Z,4.10
2023-10-20T21:45:58.546Z,3.93
2023-10-20T21:48:27.330Z,3.57
2023-10-20T21:50:56.185Z,3.93
2023-10-20T21:53:24.123Z,4.07
2023-10-20T21:56:01.184Z,3.87
2023-10-20T21:58:29.315Z,3.33
2023-10-20T22:00:57.300Z,3.83
2023-10-20T22:03:25.663Z,4.03
2023-10-20T22:05:53.876Z,3.83
2023-10-20T22:08:21.952Z,3.83
2023-10-20T22:10:49.900Z,3.80
2023-10-20T22:13:19.299Z,4.00
2023-10-20T22:15:47.718Z,3.97
2023-10-20T22:18:15.871Z,4.20
2023-10-20T22:20:44.434Z,4.07
2023-10-20T22:23:12.629Z,4.13
2023-10-20T22:25:40.763Z,4.50
2023-10-20T22:28:08.641Z,4.60
2023-10-20T22:30:38.211Z,4.50
2023-10-20T22:33:06.267Z,5.10
2023-10-20T22:35:34.188Z,4.80
2023-10-20T22:38:02.083Z,4.80
2023-10-20T22:40:29.968Z,4.30
2023-10-20T22:42:57.834Z,4.83
2023-10-20T22:45:25.831Z,4.50
2023-10-20T22:47:55.242Z,4.70
2023-10-20T22:50:23.193Z,4.53
2023-10-20T22:52:51.081Z,4.30
2023-10-20T22:55:19.034Z,4.03
2023-10-20T22:57:46.879Z,4.30
2023-10-20T23:00:16.115Z,4.60
2023-10-20T23:02:44.801Z,4.53
2023-10-20T23:05:14.638Z,3.83
2023-10-20T23:07:42.504Z,4.03
2023-10-20T23:10:11.035Z,4.17
2023-10-20T23:12:38.880Z,4.50
2023-10-20T23:15:08.316Z,4.20
2023-10-20T23:17:36.258Z,3.87
2023-10-20T23:20:04.711Z,3.77
2023-10-20T23:22:33.938Z,3.97
2023-10-20T23:25:01.773Z,3.27
2023-10-20T23:27:29.647Z,4.00
2023-10-20T23:29:57.525Z,3.80
2023-10-20T23:32:25.418Z,4.10
2023-10-20T23:34:54.585Z,3.47
2023-10-20T23:37:22.866Z,3.60
2023-10-20T23:39:52.119Z,3.63
2023-10-20T23:42:19.982Z,3.67
2023-10-20T23:44:48.104Z,3.37
2023-10-20T23:47:16.041Z,4.23
2023-10-20T23:49:43.975Z,4.03
2023-10-20T23:52:11.861Z,3.73
2023-10-20T23:54:39.720Z,3.57
2023-10-20T23:57:09.121Z,3.40
2023-10-20T23:59:37.759Z,3.40
